Terminal Aerodrome Forecast
Issued by NWS

Home | Current Version | Previous Version | Text Only | Print | Product List | Glossary Off
Versions: 1 2 3 4 5 6 7 8 9 10 11 12 13

000
FTUS43 KBIS 202300
TAFMOT
TAF
KMOT 202337Z 2100/2124 30017G28KT P6SM SKC
     FM210200 30013KT P6SM SKC
     FM210900 28008KT P6SM SKC=

USA.gov is the U.S. government's official web portal to all federal, state and local government web resources and services.